CheckWX is a tool to help pilots better visualize weather data.  It is not intended as a substitute for an official pre-flight weather briefing.

19:08:33 UTC

KLAW TAF
Lawton-Fort Sill Regional Airport
Lawton, Oklahoma, USA
KLAW 272343Z 2800/2824 07005KT P6SM FEW100 BKN250 FM280400 VRB03KT P6SM SCT100 BKN250 FM281400 36007KT P6SM BKN120

May-28@
00:00 UTC

May-28 @ 00:00 UTC

May-28@
04:00 UTC

May-28 @ 04:00 UTC

TAF KLAW 272343Z 2800/2824 07005KT P6SM FEW100 BKN250

Expired

Wind
  • 070° at 5 KTS
Cloud Levels
  • Few at 10,000' AGL
  • Broken at 25,000' AGL

May-28@
04:00 UTC

May-28 @ 04:00 UTC

May-28@
14:00 UTC

May-28 @ 14:00 UTC

FM280400 VRB03KT P6SM SCT100 BKN250

Expired

Wind
  • Variable at 3 KTS
Cloud Levels
  • Scattered at 10,000' AGL
  • Broken at 25,000' AGL

May-28@
14:00 UTC

May-28 @ 14:00 UTC

May-29@
00:00 UTC

May-29 @ 00:00 UTC

FM281400 36007KT P6SM BKN120

From

From Standard forecast or significant change

Wind
  • 360° at 7 KTS
Cloud Levels
  • Broken at 12,000' AGL